Time;durP1;ratioP1;P1;durP2;ratioP2;P2;SDS_P1;SDS_P2;PMS_P1;PMS_P2;Temp;Humidity;BMP_temperature;BMP_pressure;BME280_temperature;BME280_humidity;BME280_pressure;Samples;Min_cycle;Max_cycle;Signal;HPM_P1;HPM_P2
2021/06/16 00:01:18;;;;;;;;;;;17.10;99.90;;;;;;5033601;28;19925;-65
2021/06/16 00:04:07;;;;;;;;;;;17.20;99.90;;;;;;5057004;28;20041;-65
2021/06/16 00:06:56;;;;;;;;;;;17.10;99.90;;;;;;5045352;28;19932;-65
2021/06/16 00:09:46;;;;;;;;;;;17.00;99.90;;;;;;5042318;28;19932;-65
2021/06/16 00:12:35;;;;;;;;;;;17.00;99.90;;;;;;5038638;28;19924;-65
2021/06/16 00:15:25;;;;;;;;;;;16.90;99.90;;;;;;5036471;28;20004;-65
2021/06/16 00:18:15;;;;;;;;;;;16.90;99.90;;;;;;5059576;28;20395;-65
2021/06/16 00:21:05;;;;;;;;;;;16.90;99.90;;;;;;5054053;28;19925;-68
2021/06/16 00:23:53;;;;;;;;;;;16.90;99.90;;;;;;5053837;28;19925;-65
2021/06/16 00:26:44;;;;;;;;;;;16.80;99.90;;;;;;5052950;28;19928;-65
2021/06/16 00:29:38;;;;;;;;;;;16.80;99.90;;;;;;5064538;28;20380;-65
2021/06/16 00:32:27;;;;;;;;;;;16.70;99.90;;;;;;5038189;28;19924;-65
2021/06/16 00:35:18;;;;;;;;;;;16.70;99.90;;;;;;5039734;28;19925;-65
2021/06/16 00:38:06;;;;;;;;;;;16.70;99.90;;;;;;5043661;28;20011;-65
2021/06/16 00:40:55;;;;;;;;;;;16.60;99.90;;;;;;5048021;28;19988;-68
2021/06/16 00:43:45;;;;;;;;;;;16.60;99.90;;;;;;5019056;28;19926;-65
2021/06/16 00:46:34;;;;;;;;;;;16.60;99.90;;;;;;5031761;28;19932;-64
2021/06/16 00:49:23;;;;;;;;;;;16.60;99.90;;;;;;5046768;28;19932;-65
2021/06/16 00:52:12;;;;;;;;;;;16.50;99.90;;;;;;5041481;28;19933;-64
2021/06/16 00:55:00;;;;;;;;;;;16.50;99.90;;;;;;5040448;28;20277;-64
2021/06/16 00:57:51;;;;;;;;;;;16.50;99.90;;;;;;5038157;28;19929;-64
2021/06/16 01:00:44;;;;;;;;;;;16.50;99.90;;;;;;5026098;28;19925;-65
2021/06/16 01:03:35;;;;;;;;;;;16.40;99.90;;;;;;5038480;28;20012;-65
2021/06/16 01:06:27;;;;;;;;;;;16.40;99.90;;;;;;5039008;28;19998;-66
2021/06/16 01:09:17;;;;;;;;;;;16.40;99.90;;;;;;5040162;28;20032;-67
2021/06/16 01:12:11;;;;;;;;;;;16.40;99.90;;;;;;5035983;28;19992;-65
2021/06/16 01:15:01;;;;;;;;;;;16.30;99.90;;;;;;5038120;28;20323;-65
2021/06/16 01:17:53;;;;;;;;;;;16.30;99.90;;;;;;5036502;28;19935;-65
2021/06/16 01:20:43;;;;;;;;;;;16.30;99.90;;;;;;5042777;28;19925;-64
2021/06/16 01:26:54;;;;;;;;;;;16.20;99.90;;;;;;5043704;28;19925;-65
2021/06/16 01:29:44;;;;;;;;;;;16.10;99.90;;;;;;5042485;28;19983;-65
2021/06/16 01:32:33;;;;;;;;;;;16.10;99.90;;;;;;5044412;28;19931;-66
2021/06/16 01:35:21;;;;;;;;;;;16.10;99.90;;;;;;5042705;28;19932;-66
2021/06/16 01:38:10;;;;;;;;;;;16.00;99.90;;;;;;5043720;28;19935;-65
2021/06/16 01:41:01;;;;;;;;;;;16.00;99.90;;;;;;5042523;28;19925;-65
2021/06/16 01:43:53;;;;;;;;;;;16.00;99.90;;;;;;5062529;28;20055;-65
2021/06/16 01:46:43;;;;;;;;;;;15.90;99.90;;;;;;5055975;28;19935;-65
2021/06/16 01:49:33;;;;;;;;;;;15.90;99.90;;;;;;5058840;28;20446;-65
2021/06/16 01:52:22;;;;;;;;;;;15.90;99.90;;;;;;5062873;28;19921;-64
2021/06/16 01:55:11;;;;;;;;;;;15.90;99.90;;;;;;5062811;28;19998;-64
2021/06/16 01:58:00;;;;;;;;;;;15.80;99.90;;;;;;5061234;28;20396;-66
2021/06/16 02:00:52;;;;;;;;;;;15.80;99.90;;;;;;5054722;28;19920;-65
2021/06/16 02:03:41;;;;;;;;;;;15.80;99.90;;;;;;5059085;28;19956;-65
2021/06/16 02:06:31;;;;;;;;;;;15.70;99.90;;;;;;5057848;28;19967;-65
2021/06/16 02:09:20;;;;;;;;;;;15.70;99.90;;;;;;5062202;28;19924;-67
2021/06/16 02:12:10;;;;;;;;;;;15.60;99.90;;;;;;5068251;28;19995;-64
2021/06/16 02:15:02;;;;;;;;;;;15.60;99.90;;;;;;5048598;28;19929;-64
2021/06/16 02:17:54;;;;;;;;;;;15.60;99.90;;;;;;5061642;28;19932;-64
2021/06/16 02:20:44;;;;;;;;;;;15.50;99.90;;;;;;5067174;28;20010;-64
2021/06/16 02:23:32;;;;;;;;;;;15.50;99.90;;;;;;5060141;28;19931;-64
2021/06/16 02:26:23;;;;;;;;;;;15.40;99.90;;;;;;5058917;28;19968;-64
2021/06/16 02:29:12;;;;;;;;;;;15.50;99.90;;;;;;5063656;28;19920;-64
2021/06/16 02:32:01;;;;;;;;;;;15.40;99.90;;;;;;5064130;28;19955;-64
2021/06/16 02:34:51;;;;;;;;;;;15.40;99.90;;;;;;5059812;28;19928;-65
2021/06/16 02:37:44;;;;;;;;;;;15.40;99.90;;;;;;5068116;28;20304;-65
2021/06/16 02:40:33;;;;;;;;;;;15.40;99.90;;;;;;5059936;28;20817;-65
2021/06/16 02:43:22;;;;;;;;;;;15.40;99.90;;;;;;5059043;28;25085;-65
2021/06/16 02:46:12;;;;;;;;;;;15.30;99.90;;;;;;5057730;28;20276;-66
2021/06/16 02:49:03;;;;;;;;;;;15.20;99.90;;;;;;5063176;28;19932;-65
2021/06/16 02:51:53;;;;;;;;;;;15.20;99.90;;;;;;5064605;28;19924;-65
2021/06/16 02:54:43;;;;;;;;;;;15.20;99.90;;;;;;5082279;28;19931;-65
2021/06/16 02:57:33;;;;;;;;;;;15.20;99.90;;;;;;5059068;28;19940;-65
2021/06/16 03:00:22;;;;;;;;;;;15.20;99.90;;;;;;5052441;28;19968;-65
2021/06/16 03:03:11;;;;;;;;;;;15.20;99.90;;;;;;5064408;28;20300;-65
2021/06/16 03:06:01;;;;;;;;;;;15.10;99.90;;;;;;5075703;28;19982;-65
2021/06/16 03:08:52;;;;;;;;;;;15.10;99.90;;;;;;5085613;28;19947;-65
2021/06/16 03:11:42;;;;;;;;;;;15.10;99.90;;;;;;5078051;28;20288;-65
2021/06/16 03:14:32;;;;;;;;;;;15.10;99.90;;;;;;5081740;28;19925;-65
2021/06/16 03:17:21;;;;;;;;;;;15.10;99.90;;;;;;5077265;28;19932;-66
2021/06/16 03:20:10;;;;;;;;;;;15.10;99.90;;;;;;5088579;28;20335;-65
2021/06/16 03:23:00;;;;;;;;;;;15.10;99.90;;;;;;5080630;28;19925;-66
2021/06/16 03:25:50;;;;;;;;;;;15.10;99.90;;;;;;5086187;28;19925;-65
2021/06/16 03:28:39;;;;;;;;;;;15.20;99.90;;;;;;5078021;28;19979;-66
2021/06/16 03:31:28;;;;;;;;;;;15.10;99.90;;;;;;5079499;28;19947;-65
2021/06/16 03:34:17;;;;;;;;;;;15.20;99.90;;;;;;5068715;28;19924;-65
2021/06/16 03:37:08;;;;;;;;;;;15.20;99.90;;;;;;5060453;28;19929;-65
2021/06/16 03:39:56;;;;;;;;;;;15.20;99.90;;;;;;5063425;28;19931;-65
2021/06/16 03:42:49;;;;;;;;;;;15.20;99.90;;;;;;5058460;28;19925;-65
2021/06/16 03:45:38;;;;;;;;;;;15.20;99.90;;;;;;5055432;28;20269;-65
2021/06/16 03:48:27;;;;;;;;;;;15.20;99.90;;;;;;5061447;28;19925;-65
2021/06/16 03:51:17;;;;;;;;;;;15.30;99.90;;;;;;5055826;28;20272;-64
2021/06/16 03:54:11;;;;;;;;;;;15.30;99.90;;;;;;5057484;28;19929;-65
2021/06/16 03:57:00;;;;;;;;;;;15.30;99.90;;;;;;5061646;28;19946;-65
2021/06/16 03:59:50;;;;;;;;;;;15.40;99.90;;;;;;5067628;28;19970;-66
2021/06/16 04:02:39;;;;;;;;;;;15.50;99.90;;;;;;5043900;28;19933;-65
2021/06/16 04:05:28;;;;;;;;;;;15.50;99.90;;;;;;5047514;28;19925;-65
2021/06/16 04:08:44;;;;;;;;;;;15.50;99.90;;;;;;5052459;28;19933;-65
2021/06/16 04:11:34;;;;;;;;;;;15.60;99.90;;;;;;5038185;28;20043;-65
2021/06/16 04:14:23;;;;;;;;;;;15.70;99.90;;;;;;5039400;28;19929;-65
2021/06/16 04:17:13;;;;;;;;;;;15.70;99.90;;;;;;5048790;28;19925;-65
2021/06/16 04:20:03;;;;;;;;;;;15.90;99.90;;;;;;5053018;28;20510;-65
2021/06/16 04:22:51;;;;;;;;;;;15.90;99.90;;;;;;5052270;28;20384;-65
2021/06/16 04:25:39;;;;;;;;;;;16.00;99.90;;;;;;5057286;28;19932;-66
2021/06/16 04:28:28;;;;;;;;;;;16.20;99.90;;;;;;5053552;28;19947;-65
2021/06/16 04:31:17;;;;;;;;;;;16.30;99.90;;;;;;5040589;28;20011;-64
2021/06/16 04:34:07;;;;;;;;;;;16.40;99.90;;;;;;5043797;28;20013;-65
2021/06/16 04:36:55;;;;;;;;;;;16.60;99.90;;;;;;5039923;28;20012;-65
2021/06/16 04:39:44;;;;;;;;;;;16.70;99.90;;;;;;5039708;28;19921;-65
2021/06/16 04:42:34;;;;;;;;;;;16.90;99.90;;;;;;5041226;28;19932;-66
2021/06/16 04:45:22;;;;;;;;;;;17.00;99.90;;;;;;5028707;28;19928;-65
2021/06/16 04:48:14;;;;;;;;;;;17.10;99.90;;;;;;5045019;28;19956;-67
2021/06/16 04:51:04;;;;;;;;;;;17.20;99.90;;;;;;5043891;28;20000;-65
2021/06/16 04:53:53;;;;;;;;;;;17.40;99.90;;;;;;5050223;28;20339;-65
2021/06/16 04:56:42;;;;;;;;;;;17.50;99.90;;;;;;5044523;28;20047;-66
2021/06/16 04:59:31;;;;;;;;;;;17.70;99.90;;;;;;5049522;28;19920;-64
2021/06/16 05:02:19;;;;;;;;;;;17.70;99.90;;;;;;5049143;28;19956;-67
2021/06/16 05:05:09;;;;;;;;;;;17.80;99.90;;;;;;5039159;28;20254;-66
2021/06/16 05:08:05;;;;;;;;;;;17.80;99.90;;;;;;5049933;28;20017;-66
2021/06/16 05:10:54;;;;;;;;;;;18.00;99.90;;;;;;5052672;28;19932;-65
2021/06/16 05:13:42;;;;;;;;;;;18.30;99.90;;;;;;5054894;28;19935;-65
2021/06/16 05:16:31;;;;;;;;;;;18.50;99.90;;;;;;5041810;28;20492;-65
2021/06/16 05:19:21;;;;;;;;;;;18.70;99.90;;;;;;5054236;28;19974;-66
2021/06/16 05:22:13;;;;;;;;;;;18.80;99.90;;;;;;5052836;28;19928;-66
2021/06/16 05:25:04;;;;;;;;;;;19.00;99.90;;;;;;5056909;28;19935;-66
2021/06/16 05:27:52;;;;;;;;;;;19.10;99.90;;;;;;5056345;28;20389;-65
2021/06/16 05:30:41;;;;;;;;;;;19.30;99.90;;;;;;5057404;28;19927;-66
2021/06/16 05:33:30;;;;;;;;;;;19.50;99.90;;;;;;5075013;28;19921;-66
2021/06/16 05:36:18;;;;;;;;;;;19.60;99.90;;;;;;5072654;28;19920;-65
2021/06/16 05:39:07;;;;;;;;;;;19.50;99.90;;;;;;5066546;28;20277;-67
2021/06/16 05:41:57;;;;;;;;;;;19.60;99.90;;;;;;5063863;28;20055;-68
2021/06/16 05:45:11;;;;;;;;;;;19.80;99.90;;;;;;5058925;28;19927;-65
2021/06/16 05:48:00;;;;;;;;;;;20.00;99.90;;;;;;5070453;28;19967;-65
2021/06/16 05:50:54;;;;;;;;;;;20.20;99.90;;;;;;5066912;28;19920;-66
2021/06/16 05:53:43;;;;;;;;;;;20.20;99.90;;;;;;5071355;28;19920;-66
2021/06/16 05:56:31;;;;;;;;;;;20.10;99.90;;;;;;5050562;28;19928;-65
2021/06/16 05:59:21;;;;;;;;;;;20.20;99.90;;;;;;5071558;28;19920;-66
2021/06/16 06:02:10;;;;;;;;;;;20.20;99.90;;;;;;5051516;28;19920;-66
2021/06/16 06:04:59;;;;;;;;;;;20.20;99.90;;;;;;5073051;28;20287;-66
2021/06/16 06:07:48;;;;;;;;;;;20.40;99.90;;;;;;5066264;28;20364;-67
2021/06/16 06:10:36;;;;;;;;;;;20.40;99.90;;;;;;5066392;28;19920;-65
2021/06/16 06:13:25;;;;;;;;;;;20.60;99.90;;;;;;5070607;28;19928;-66
2021/06/16 06:16:15;;;;;;;;;;;20.70;99.90;;;;;;5064443;28;19932;-65
2021/06/16 06:19:04;;;;;;;;;;;21.00;99.90;;;;;;5074242;28;20267;-65
2021/06/16 06:21:54;;;;;;;;;;;21.30;99.90;;;;;;5074880;28;19924;-65
2021/06/16 06:24:43;;;;;;;;;;;21.30;99.90;;;;;;5072947;28;19928;-65
2021/06/16 06:27:31;;;;;;;;;;;21.80;99.90;;;;;;5059345;28;19939;-66
2021/06/16 06:30:20;;;;;;;;;;;21.90;99.90;;;;;;5064628;28;19925;-65
2021/06/16 06:33:10;;;;;;;;;;;21.70;99.90;;;;;;5055625;28;19932;-67
2021/06/16 06:35:58;;;;;;;;;;;21.70;99.90;;;;;;5068086;28;19924;-65
2021/06/16 06:38:47;;;;;;;;;;;21.90;99.90;;;;;;5075503;28;19978;-65
2021/06/16 06:41:36;;;;;;;;;;;21.80;99.90;;;;;;5070464;28;19925;-66
2021/06/16 06:44:25;;;;;;;;;;;22.60;99.90;;;;;;5073016;28;19933;-65
2021/06/16 06:47:14;;;;;;;;;;;23.10;99.90;;;;;;5068010;28;20420;-65
2021/06/16 06:50:10;;;;;;;;;;;23.70;99.90;;;;;;5071231;28;20090;-67
2021/06/16 06:52:59;;;;;;;;;;;23.80;99.90;;;;;;5079703;28;19920;-65
2021/06/16 06:55:48;;;;;;;;;;;23.80;99.90;;;;;;5073634;28;19920;-66
2021/06/16 06:58:39;;;;;;;;;;;24.30;99.90;;;;;;5079706;28;19924;-67
2021/06/16 07:01:28;;;;;;;;;;;24.80;98.40;;;;;;5059228;28;19921;-66
2021/06/16 07:04:16;;;;;;;;;;;25.10;97.20;;;;;;5073709;28;19928;-65
2021/06/16 07:07:07;;;;;;;;;;;25.20;96.70;;;;;;5070030;28;19921;-65
2021/06/16 07:10:21;;;;;;;;;;;26.00;95.50;;;;;;5073361;28;19920;-65
2021/06/16 07:13:09;;;;;;;;;;;27.30;93.90;;;;;;5069003;28;19924;-65
2021/06/16 07:15:58;;;;;;;;;;;28.50;90.40;;;;;;5065889;28;19950;-65
2021/06/16 07:18:48;;;;;;;;;;;29.70;86.10;;;;;;5050098;28;19924;-65
2021/06/16 07:21:37;;;;;;;;;;;31.00;81.50;;;;;;5052882;28;20340;-66
2021/06/16 07:24:27;;;;;;;;;;;29.70;81.80;;;;;;5049862;28;19928;-66
2021/06/16 07:27:15;;;;;;;;;;;29.10;82.70;;;;;;5052897;28;20396;-66
2021/06/16 07:30:05;;;;;;;;;;;29.30;83.50;;;;;;5025597;28;19960;-65
2021/06/16 07:32:55;;;;;;;;;;;29.50;82.80;;;;;;5052822;28;19924;-65
2021/06/16 07:35:45;;;;;;;;;;;29.60;83.30;;;;;;5059294;28;20655;-65
2021/06/16 07:38:34;;;;;;;;;;;30.40;80.70;;;;;;5062071;28;20893;-65
2021/06/16 07:41:47;;;;;;;;;;;30.30;79.20;;;;;;5060155;28;20390;-65
2021/06/16 07:44:38;;;;;;;;;;;29.90;79.70;;;;;;5061408;28;19928;-65
2021/06/16 07:47:52;;;;;;;;;;;30.00;80.20;;;;;;5056188;28;19986;-66
2021/06/16 07:50:42;;;;;;;;;;;30.30;78.50;;;;;;5060456;28;19928;-66
2021/06/16 07:53:56;;;;;;;;;;;33.90;71.30;;;;;;5067174;28;20343;-66
2021/06/16 07:56:45;;;;;;;;;;;33.50;65.10;;;;;;5072031;28;19920;-66
2021/06/16 07:59:36;;;;;;;;;;;32.90;67.80;;;;;;5070172;28;19928;-67
2021/06/16 08:02:29;;;;;;;;;;;32.20;68.30;;;;;;5062381;28;19920;-66
2021/06/16 08:05:17;;;;;;;;;;;31.70;69.40;;;;;;5052020;28;19935;-67
2021/06/16 08:08:07;;;;;;;;;;;31.60;70.20;;;;;;5061060;28;19931;-69
2021/06/16 08:10:56;;;;;;;;;;;31.20;68.60;;;;;;5066730;28;20070;-66
2021/06/16 08:13:44;;;;;;;;;;;30.20;73.60;;;;;;5068647;28;19920;-66
2021/06/16 08:16:33;;;;;;;;;;;30.60;72.30;;;;;;5065609;28;19927;-66
2021/06/16 08:19:23;;;;;;;;;;;32.40;70.20;;;;;;5063348;28;19924;-66
2021/06/16 08:22:13;;;;;;;;;;;33.30;64.70;;;;;;5069849;28;20257;-66
2021/06/16 08:25:03;;;;;;;;;;;33.40;64.60;;;;;;5063237;28;19920;-67
2021/06/16 08:27:51;;;;;;;;;;;33.00;63.70;;;;;;5074213;28;19920;-66
2021/06/16 08:30:40;;;;;;;;;;;32.40;64.60;;;;;;5063139;28;19978;-67
2021/06/16 08:33:30;;;;;;;;;;;33.60;63.10;;;;;;5062763;28;19951;-67
2021/06/16 08:36:20;;;;;;;;;;;35.00;58.90;;;;;;5056242;28;19974;-67
2021/06/16 08:39:09;;;;;;;;;;;34.10;59.80;;;;;;5055874;28;19947;-68
2021/06/16 08:41:58;;;;;;;;;;;35.30;56.90;;;;;;5071175;28;20380;-66
2021/06/16 08:44:57;;;;;;;;;;;35.70;57.70;;;;;;5060050;28;19924;-66
2021/06/16 08:47:46;;;;;;;;;;;36.00;53.80;;;;;;5066855;28;19921;-66
2021/06/16 08:50:35;;;;;;;;;;;34.30;59.20;;;;;;5064580;28;20428;-67
2021/06/16 08:53:25;;;;;;;;;;;34.30;58.50;;;;;;5074629;28;20042;-67
2021/06/16 08:56:14;;;;;;;;;;;37.00;53.10;;;;;;5074709;28;19920;-67
2021/06/16 08:59:02;;;;;;;;;;;35.50;51.20;;;;;;5071124;28;20066;-66
2021/06/16 09:01:51;;;;;;;;;;;33.60;54.10;;;;;;5066891;28;19920;-67
2021/06/16 09:04:44;;;;;;;;;;;33.80;54.90;;;;;;5064488;28;20009;-66
2021/06/16 09:07:33;;;;;;;;;;;34.40;54.40;;;;;;5064208;28;20007;-69
2021/06/16 09:10:24;;;;;;;;;;;34.30;54.90;;;;;;5062441;28;19924;-67
2021/06/16 09:13:23;;;;;;;;;;;33.50;55.00;;;;;;5071978;28;19929;-66
2021/06/16 09:16:24;;;;;;;;;;;33.00;57.20;;;;;;5064730;28;19927;-67
2021/06/16 09:19:21;;;;;;;;;;;32.80;57.80;;;;;;5063938;28;19920;-66
2021/06/16 09:22:10;;;;;;;;;;;34.10;54.40;;;;;;5069581;28;19930;-66
2021/06/16 09:25:00;;;;;;;;;;;33.50;52.90;;;;;;5066823;28;19963;-67
2021/06/16 09:27:51;;;;;;;;;;;33.70;54.40;;;;;;5062609;28;19928;-66
2021/06/16 09:30:42;;;;;;;;;;;34.40;56.10;;;;;;5065626;28;19959;-66
2021/06/16 09:33:32;;;;;;;;;;;33.00;55.10;;;;;;5068626;28;20046;-66
2021/06/16 09:36:21;;;;;;;;;;;32.40;57.10;;;;;;5068749;28;20053;-66
2021/06/16 09:39:09;;;;;;;;;;;31.10;59.00;;;;;;5070103;28;20332;-65
2021/06/16 09:42:00;;;;;;;;;;;31.50;58.60;;;;;;5069473;28;19924;-66
2021/06/16 09:45:13;;;;;;;;;;;31.70;56.40;;;;;;5065332;28;19926;-68
2021/06/16 09:48:35;;;;;;;;;;;31.60;58.00;;;;;;5063920;28;20034;-65
2021/06/16 09:51:26;;;;;;;;;;;30.90;57.70;;;;;;5027249;28;20364;-64
2021/06/16 09:54:16;;;;;;;;;;;31.00;58.00;;;;;;5035567;28;20387;-67
2021/06/16 09:57:07;;;;;;;;;;;31.30;60.20;;;;;;5033669;28;19928;-65
2021/06/16 10:00:00;;;;;;;;;;;31.40;62.60;;;;;;5032224;28;19921;-67
2021/06/16 10:03:06;;;;;;;;;;;32.00;57.50;;;;;;5034558;28;19975;-65
2021/06/16 10:06:20;;;;;;;;;;;32.40;54.70;;;;;;5025530;28;20407;-66
2021/06/16 10:09:10;;;;;;;;;;;32.40;51.80;;;;;;5025366;28;20003;-66
2021/06/16 10:11:58;;;;;;;;;;;32.40;52.20;;;;;;5025756;28;19953;-66
2021/06/16 10:14:50;;;;;;;;;;;31.00;53.30;;;;;;5027483;28;19928;-66
2021/06/16 10:17:39;;;;;;;;;;;30.70;56.40;;;;;;5024449;28;20324;-66
2021/06/16 10:20:27;;;;;;;;;;;31.40;54.00;;;;;;5032741;28;19932;-66
2021/06/16 10:23:16;;;;;;;;;;;31.50;53.90;;;;;;5057059;28;19921;-65
2021/06/16 10:26:07;;;;;;;;;;;31.20;55.00;;;;;;5071530;28;19921;-65
2021/06/16 10:29:04;;;;;;;;;;;31.30;55.00;;;;;;5076556;28;19927;-65
2021/06/16 10:31:53;;;;;;;;;;;30.90;54.30;;;;;;5059281;28;20352;-66
2021/06/16 10:35:00;;;;;;;;;;;30.60;55.80;;;;;;5083557;28;19970;-65
2021/06/16 10:37:48;;;;;;;;;;;30.60;58.70;;;;;;5083357;28;19921;-65
2021/06/16 10:40:46;;;;;;;;;;;30.70;58.20;;;;;;5086842;28;19921;-65
2021/06/16 10:43:39;;;;;;;;;;;30.50;57.80;;;;;;5083089;28;19920;-65
2021/06/16 10:46:49;;;;;;;;;;;31.10;55.60;;;;;;5068467;28;20076;-67
2021/06/16 10:49:52;;;;;;;;;;;31.30;55.80;;;;;;5056653;28;20084;-65
2021/06/16 10:53:02;;;;;;;;;;;31.40;55.80;;;;;;5069395;28;20009;-65
2021/06/16 10:56:03;;;;;;;;;;;31.40;55.90;;;;;;5064684;28;19924;-66
2021/06/16 10:59:37;;;;;;;;;;;31.10;57.00;;;;;;5070813;28;19963;-64
2021/06/16 11:02:42;;;;;;;;;;;30.40;56.80;;;;;;5062761;28;19921;-66
2021/06/16 11:05:35;;;;;;;;;;;31.10;56.50;;;;;;5068912;28;19935;-65
2021/06/16 11:08:52;;;;;;;;;;;32.70;52.30;;;;;;5068271;28;20383;-68
2021/06/16 11:12:01;;;;;;;;;;;32.90;52.30;;;;;;5073688;28;20009;-66
2021/06/16 11:14:50;;;;;;;;;;;31.40;54.70;;;;;;5068940;28;19928;-66
2021/06/16 11:17:46;;;;;;;;;;;31.20;55.90;;;;;;5072605;28;20316;-66
2021/06/16 11:20:37;;;;;;;;;;;31.10;55.50;;;;;;5076568;28;19979;-66
2021/06/16 11:23:28;;;;;;;;;;;30.60;56.20;;;;;;5069817;28;19925;-66
2021/06/16 11:26:32;;;;;;;;;;;30.30;55.40;;;;;;5072589;28;19924;-66
2021/06/16 11:29:38;;;;;;;;;;;30.00;56.10;;;;;;5054599;28;19928;-66
2021/06/16 11:32:27;;;;;;;;;;;30.30;58.20;;;;;;5070562;28;20364;-67
2021/06/16 11:35:37;;;;;;;;;;;30.40;57.20;;;;;;5059457;28;19985;-66
2021/06/16 11:38:30;;;;;;;;;;;30.50;56.20;;;;;;5067771;28;20003;-67
2021/06/16 11:41:46;;;;;;;;;;;29.80;56.20;;;;;;5074784;28;19920;-66
2021/06/16 11:44:35;;;;;;;;;;;30.40;56.90;;;;;;5071235;28;19921;-66
2021/06/16 11:47:25;;;;;;;;;;;31.10;55.10;;;;;;5068218;28;20283;-66
2021/06/16 11:50:38;;;;;;;;;;;31.60;54.40;;;;;;5070277;28;19927;-65
2021/06/16 11:53:32;;;;;;;;;;;31.90;54.20;;;;;;5071750;28;19920;-66
2021/06/16 11:56:21;;;;;;;;;;;32.50;52.40;;;;;;5068011;28;19921;-66
2021/06/16 11:59:10;;;;;;;;;;;32.30;53.80;;;;;;5072284;28;19939;-66
2021/06/16 12:02:05;;;;;;;;;;;32.00;52.50;;;;;;5050106;28;19928;-66
2021/06/16 12:05:13;;;;;;;;;;;30.90;54.40;;;;;;5050143;28;20356;-66
2021/06/16 12:08:02;;;;;;;;;;;30.70;54.60;;;;;;5070200;28;20380;-65
2021/06/16 12:11:19;;;;;;;;;;;30.60;53.40;;;;;;5053873;28;19928;-66
2021/06/16 12:14:08;;;;;;;;;;;30.10;55.70;;;;;;5071486;28;19920;-66
2021/06/16 12:17:04;;;;;;;;;;;29.80;60.60;;;;;;5057365;28;19921;-67
2021/06/16 12:19:53;;;;;;;;;;;29.50;57.40;;;;;;5067022;28;19927;-66
2021/06/16 12:22:42;;;;;;;;;;;29.30;58.00;;;;;;5070780;28;19920;-66
2021/06/16 12:25:31;;;;;;;;;;;29.40;58.80;;;;;;5067701;28;19925;-65
2021/06/16 12:28:23;;;;;;;;;;;29.40;56.40;;;;;;5073419;28;19924;-66
2021/06/16 12:31:14;;;;;;;;;;;29.50;56.00;;;;;;5065752;28;19974;-66
2021/06/16 12:34:11;;;;;;;;;;;29.40;56.00;;;;;;5068015;28;20073;-66
2021/06/16 12:37:07;;;;;;;;;;;29.60;56.40;;;;;;5056884;28;19928;-66
2021/06/16 12:39:59;;;;;;;;;;;29.60;57.90;;;;;;5069660;28;19921;-66
2021/06/16 12:42:48;;;;;;;;;;;29.30;56.70;;;;;;5066391;28;19920;-66
2021/06/16 12:45:41;;;;;;;;;;;29.10;56.80;;;;;;5059722;28;19921;-67
2021/06/16 12:48:31;;;;;;;;;;;29.20;56.60;;;;;;5070748;28;20471;-68
2021/06/16 12:51:19;;;;;;;;;;;29.30;56.90;;;;;;5070592;28;20298;-66
2021/06/16 12:54:08;;;;;;;;;;;29.20;54.90;;;;;;5057546;28;19955;-65
2021/06/16 12:57:14;;;;;;;;;;;29.30;55.60;;;;;;5064185;28;19928;-65
2021/06/16 13:00:11;;;;;;;;;;;29.30;56.00;;;;;;5057492;28;20449;-65
2021/06/16 13:03:11;;;;;;;;;;;29.40;56.70;;;;;;5064319;28;20368;-66
2021/06/16 13:06:01;;;;;;;;;;;29.50;56.90;;;;;;5061365;28;20062;-64
2021/06/16 13:08:51;;;;;;;;;;;29.50;56.20;;;;;;5070414;28;19927;-65
2021/06/16 13:11:40;;;;;;;;;;;29.80;54.20;;;;;;5054314;28;20040;-67
2021/06/16 13:14:32;;;;;;;;;;;30.20;53.00;;;;;;5069952;28;20015;-65
2021/06/16 13:17:21;;;;;;;;;;;30.00;53.00;;;;;;5062479;28;20023;-65
2021/06/16 13:20:12;;;;;;;;;;;30.20;51.80;;;;;;5081838;28;19924;-66
2021/06/16 13:23:12;;;;;;;;;;;30.10;52.70;;;;;;5075549;28;19963;-66
2021/06/16 13:26:03;;;;;;;;;;;30.00;52.70;;;;;;5091910;28;19920;-66
2021/06/16 13:28:59;;;;;;;;;;;30.00;55.10;;;;;;5084540;28;20027;-66
2021/06/16 13:31:48;;;;;;;;;;;30.10;55.10;;;;;;5069635;28;19920;-66
2021/06/16 13:34:39;;;;;;;;;;;30.10;55.80;;;;;;5085616;28;19946;-65
2021/06/16 13:37:29;;;;;;;;;;;30.40;56.10;;;;;;5079122;28;19971;-66
2021/06/16 13:40:18;;;;;;;;;;;30.50;55.70;;;;;;5067699;28;19927;-67
2021/06/16 13:43:06;;;;;;;;;;;31.00;53.00;;;;;;5068176;28;20336;-67
2021/06/16 13:45:55;;;;;;;;;;;31.10;50.90;;;;;;5066316;28;20295;-65
2021/06/16 13:48:43;;;;;;;;;;;30.80;52.20;;;;;;5073032;28;20346;-65
2021/06/16 13:51:32;;;;;;;;;;;30.20;51.00;;;;;;5062361;28;20376;-65
2021/06/16 13:54:23;;;;;;;;;;;30.00;50.50;;;;;;5061609;28;20284;-67
2021/06/16 13:57:36;;;;;;;;;;;30.20;52.10;;;;;;5058912;28;19924;-65
2021/06/16 14:00:25;;;;;;;;;;;30.90;49.40;;;;;;5060444;28;19960;-66
2021/06/16 14:03:14;;;;;;;;;;;30.70;51.60;;;;;;5074111;28;19963;-65
2021/06/16 14:06:02;;;;;;;;;;;30.60;53.90;;;;;;5076023;28;19924;-65
2021/06/16 14:08:50;;;;;;;;;;;30.40;54.60;;;;;;5073885;28;19985;-66
2021/06/16 14:11:41;;;;;;;;;;;30.20;53.60;;;;;;5076982;28;19931;-66
2021/06/16 14:14:29;;;;;;;;;;;29.80;53.10;;;;;;5074840;28;20280;-64
2021/06/16 14:17:18;;;;;;;;;;;29.90;54.10;;;;;;5067081;28;19924;-65
2021/06/16 14:20:08;;;;;;;;;;;30.00;54.40;;;;;;5073913;28;20458;-65
2021/06/16 14:22:56;;;;;;;;;;;30.00;53.30;;;;;;5072906;28;19921;-65
2021/06/16 14:25:45;;;;;;;;;;;29.90;51.70;;;;;;5072435;28;20285;-65
2021/06/16 14:28:35;;;;;;;;;;;30.20;52.10;;;;;;5064765;28;19951;-65
2021/06/16 14:31:23;;;;;;;;;;;30.50;51.60;;;;;;5056971;28;19928;-65
2021/06/16 14:34:12;;;;;;;;;;;31.00;51.80;;;;;;5062374;28;19920;-65
2021/06/16 14:37:01;;;;;;;;;;;30.90;53.20;;;;;;5063098;28;19924;-66
2021/06/16 14:39:49;;;;;;;;;;;31.00;53.90;;;;;;5064646;28;19989;-66
2021/06/16 14:42:38;;;;;;;;;;;31.50;51.40;;;;;;5067159;28;20364;-65
2021/06/16 14:45:29;;;;;;;;;;;31.50;50.10;;;;;;5059715;28;19943;-65
2021/06/16 14:48:18;;;;;;;;;;;31.20;50.60;;;;;;5063592;28;19927;-65
2021/06/16 14:51:06;;;;;;;;;;;30.80;51.00;;;;;;5070575;28;20360;-67
2021/06/16 14:53:55;;;;;;;;;;;30.20;51.10;;;;;;5072654;28;20372;-65
2021/06/16 14:56:44;;;;;;;;;;;30.10;52.90;;;;;;5069201;28;20356;-65
2021/06/16 14:59:36;;;;;;;;;;;29.80;50.80;;;;;;5059453;28;19924;-66
2021/06/16 15:02:25;;;;;;;;;;;30.00;52.20;;;;;;5071189;28;20429;-65
2021/06/16 15:05:15;;;;;;;;;;;29.90;51.10;;;;;;5065651;28;20391;-69
2021/06/16 15:08:09;;;;;;;;;;;30.30;51.70;;;;;;5064694;28;19921;-66
2021/06/16 15:10:58;;;;;;;;;;;30.40;51.50;;;;;;5065749;28;20291;-66
2021/06/16 15:13:47;;;;;;;;;;;30.00;52.20;;;;;;5066870;28;20011;-66
2021/06/16 15:16:36;;;;;;;;;;;30.10;52.30;;;;;;5062460;28;19924;-66
2021/06/16 15:19:26;;;;;;;;;;;30.00;51.60;;;;;;5071477;28;19942;-65
2021/06/16 15:22:15;;;;;;;;;;;30.00;54.10;;;;;;5073188;28;20015;-66
2021/06/16 15:25:05;;;;;;;;;;;29.90;54.20;;;;;;5073268;28;19920;-66
2021/06/16 15:27:55;;;;;;;;;;;30.00;55.10;;;;;;5068522;28;19921;-66
2021/06/16 15:30:45;;;;;;;;;;;29.90;52.60;;;;;;5065726;28;20281;-66
2021/06/16 15:33:34;;;;;;;;;;;29.80;53.50;;;;;;5053988;28;19920;-65
2021/06/16 15:36:24;;;;;;;;;;;29.80;55.00;;;;;;5068126;28;20029;-65
2021/06/16 15:39:13;;;;;;;;;;;29.70;53.50;;;;;;5069356;28;19924;-64
2021/06/16 15:42:03;;;;;;;;;;;29.60;51.30;;;;;;5071573;28;19921;-65
2021/06/16 15:45:18;;;;;;;;;;;29.70;51.10;;;;;;5061203;28;20011;-66
2021/06/16 15:48:11;;;;;;;;;;;29.70;52.40;;;;;;5069875;28;19924;-64
2021/06/16 15:51:01;;;;;;;;;;;29.70;52.40;;;;;;5063105;28;19924;-65
2021/06/16 15:53:51;;;;;;;;;;;29.90;50.60;;;;;;5060740;28;19921;-65
2021/06/16 15:56:40;;;;;;;;;;;29.90;52.30;;;;;;5063091;28;19920;-64
2021/06/16 15:59:28;;;;;;;;;;;29.90;54.50;;;;;;5046625;28;19928;-64
2021/06/16 16:02:19;;;;;;;;;;;29.80;53.10;;;;;;5057015;28;19920;-64
2021/06/16 16:05:08;;;;;;;;;;;29.80;51.60;;;;;;5067256;28;19927;-64
2021/06/16 16:07:57;;;;;;;;;;;29.70;51.80;;;;;;5068803;28;19925;-65
2021/06/16 16:10:47;;;;;;;;;;;29.70;52.70;;;;;;5069881;28;20045;-64
2021/06/16 16:13:36;;;;;;;;;;;29.70;54.00;;;;;;5072047;28;20349;-64
2021/06/16 16:16:25;;;;;;;;;;;29.60;54.40;;;;;;5061539;28;20403;-64
2021/06/16 16:19:14;;;;;;;;;;;29.50;53.80;;;;;;5070174;28;19932;-65
2021/06/16 16:22:02;;;;;;;;;;;29.50;54.10;;;;;;5054499;28;20234;-65
2021/06/16 16:24:51;;;;;;;;;;;29.40;55.00;;;;;;5054262;28;19959;-64
2021/06/16 16:27:41;;;;;;;;;;;29.30;56.70;;;;;;5069737;28;20526;-65
2021/06/16 16:30:32;;;;;;;;;;;29.20;58.50;;;;;;5050076;28;20380;-64
2021/06/16 16:33:21;;;;;;;;;;;29.10;58.90;;;;;;5067245;28;19921;-65
2021/06/16 16:36:09;;;;;;;;;;;29.00;59.20;;;;;;5055247;28;19920;-64
2021/06/16 16:38:58;;;;;;;;;;;28.90;59.30;;;;;;5067127;28;20455;-64
2021/06/16 16:41:47;;;;;;;;;;;28.90;60.00;;;;;;5056060;28;19921;-64